EmailTwitter


Surface observations / Canada / CYYZ (71624)

Regions: Quebec | Canada | USA | Europe | France | UK | Elsewhere
Station
Display
Info & Location for CYYZ (71624) | Help decoding METAR

Weather Conditions observed on 2019/01/20 at 19:00 UTC at TORONTO A, ON (CYYZ)

Sky conditions: few clouds.

Obstruction(s) to Vision: moderate snow low drifting.

Temperature: -14.0 Celsius.

Dewpoint: -20.0 Celsius.

Relative Humidity: 60%

Windchill Factor: -26.

Windchill Factor (Gusts): -27.

Winds: Northwest at 43 km/h or 23 knots.

Gust: 52 km/h or 28 knots.

Mean Sea level Pressure: 101.45 kilopascals.

Altimeter Setting (QNH): 101.29 kilopascals or 29.91 inches of mercury.

Horizontal visibility: 15.00 statute miles or 24.00 kilometers.

Coded METAR:

CYYZ 201900Z 33023G28KT 15SM DRSN FEW020 M14/M20 A2991 RMK SC1 SLP145=